Terminal Aerodrome Forecast
Issued by NWS

Home | Current Version | Previous Version | Text Only | Print | Product List | Glossary On
Versions: 1 2 3 4 5 6 7 8 9 10 11 12 13
000
FTUS43 KMQT 302320
TAFIWD
TAF
KIWD 302320Z 3100/3124 09008KT P6SM BKN035
     FM310300 10008KT P6SM BKN030
     FM310800 07005KT P6SM SCT050
     FM311500 04008KT P6SM FEW150
     FM312000 01009KT P6SM FEW250=

USA.gov is the U.S. government's official web portal to all federal, state and local government web resources and services.